METAR AND TAF INFORMATION
METAR FOR SBHT
ADDS - METARS form results

(1126 UTC 19 January 2019)
Data provider http://aviationweather.gov/metar/data/
 
METAR text: SBHT 191100Z 12004KT 9999 FEW011 BKN080 24/23 Q1013
Conditions at: SBHT (ALTAMIRA , BR) observed 1100 UTC 19 January 2019
Temperature: 24.0°C (75°F)
Dewpoint: 23.0°C (73°F) [RH = 94%]
Pressure (altimeter): 29.91 inches Hg (1013.0 mb)
Winds: from the ESE (120 degrees) at 5 MPH (4 knots; 2.1 m/s)
Visibility: 6 or more miles (10+ km)
Ceiling: 8000 feet AGL
Clouds: few clouds at 1100 feet AGL
broken clouds at 8000 feet AGL
Weather: no significant weather observed at this time

 AIRPORT MAP

 RUNWAY INFORMATION
Runway 7 Runway length 6572 ft Runway width 125 ft
Runway elevation 0 ft Runway displaced threshold 0 ft Runway heading 0
Runway 25 Runway length 6572 ft Runway width 125 ft
Runway elevation 0 ft Runway displaced threshold 0 ft Runway heading 0

 AIRPORT FREQUENCIES
Type AFIS Name RDO Frequency 125.85 MHZ

 AIRPORT NEAR NAVIGATION AIDS
Type VOR Name Altamira Frequency 113200 KHZ
Type NDB Name Altamira Frequency 295 KHZ



Powered by Virtual Airlines Manager [v2.6.2]